Time;durP1;ratioP1;P1;durP2;ratioP2;P2;SDS_P1;SDS_P2;PMS_P1;PMS_P2;Temp;Humidity;BMP_temperature;BMP_pressure;BME280_temperature;BME280_humidity;BME280_pressure;Samples;Min_cycle;Max_cycle;Signal;HPM_P1;HPM_P2
2023/01/03 00:00:13;;;;;;;1.80;0.13;;;17.20;75.50;;;;;;5035801;28;20068;-80
2023/01/03 00:02:39;;;;;;;0.38;0.20;;;17.20;75.70;;;;;;5035312;28;20054;-80
2023/01/03 00:05:05;;;;;;;0.55;0.28;;;17.20;75.60;;;;;;5033970;28;20515;-80
2023/01/03 00:07:33;;;;;;;0.80;0.22;;;17.10;75.80;;;;;;5035293;28;20029;-80
2023/01/03 00:10:00;;;;;;;0.30;0.20;;;17.10;76.80;;;;;;5035301;28;20029;-80
2023/01/03 00:12:26;;;;;;;0.20;0.20;;;17.10;75.90;;;;;;5034003;28;20028;-80
2023/01/03 00:14:52;;;;;;;0.63;0.30;;;17.10;76.00;;;;;;5035090;28;20026;-80
2023/01/03 00:17:18;;;;;;;0.63;0.40;;;17.10;76.00;;;;;;5035330;28;20037;-80
2023/01/03 00:19:44;;;;;;;1.27;0.20;;;17.10;76.10;;;;;;5035277;28;20022;-80
2023/01/03 00:22:10;;;;;;;0.20;0.20;;;17.10;76.20;;;;;;5033880;28;20029;-80
2023/01/03 00:24:36;;;;;;;0.50;0.20;;;17.00;76.10;;;;;;5034027;28;20060;-80
2023/01/03 00:27:02;;;;;;;0.25;0.10;;;17.00;76.00;;;;;;5033586;28;20061;-80
2023/01/03 00:29:27;;;;;;;0.20;0.20;;;17.00;77.00;;;;;;5033916;28;20109;-79
2023/01/03 00:31:53;;;;;;;0.32;0.30;;;17.00;76.00;;;;;;5033674;28;20454;-80
2023/01/03 00:34:19;;;;;;;0.35;0.20;;;17.00;76.00;;;;;;5034854;28;20081;-80
2023/01/03 00:36:44;;;;;;;0.10;0.10;;;17.00;76.10;;;;;;5034843;28;20476;-80
2023/01/03 00:39:13;;;;;;;0.28;0.28;;;17.00;76.20;;;;;;5034713;28;20018;-79
2023/01/03 00:41:38;;;;;;;0.40;0.20;;;17.00;76.20;;;;;;5033555;28;20464;-79
2023/01/03 00:44:04;;;;;;;0.82;0.30;;;17.00;76.40;;;;;;5034699;28;20113;-80
2023/01/03 00:46:30;;;;;;;0.10;0.10;;;16.90;76.30;;;;;;5033560;28;20057;-80
2023/01/03 00:48:55;;;;;;;0.38;0.30;;;16.90;76.40;;;;;;5033379;28;20480;-80
2023/01/03 00:51:23;;;;;;;0.10;0.10;;;16.90;76.50;;;;;;5033386;28;20399;-80
2023/01/03 00:53:49;;;;;;;0.40;0.20;;;16.90;76.50;;;;;;5033580;28;20032;-81
2023/01/03 00:56:17;;;;;;;0.22;0.20;;;16.90;76.50;;;;;;5033193;28;20537;-80
2023/01/03 00:58:42;;;;;;;2.47;0.20;;;16.90;76.50;;;;;;5033315;28;20021;-80
2023/01/03 01:01:10;;;;;;;1.58;0.20;;;16.90;76.50;;;;;;5032974;28;20095;-80
2023/01/03 01:03:37;;;;;;;0.52;0.20;;;16.80;76.60;;;;;;5016514;28;20030;-80
2023/01/03 01:06:16;;;;;;;0.20;0.20;;;16.80;76.60;;;;;;5032887;28;20029;-80
2023/01/03 01:08:42;;;;;;;0.20;0.20;;;16.80;76.70;;;;;;5033043;28;20025;-81
2023/01/03 01:11:09;;;;;;;0.52;0.30;;;16.80;76.70;;;;;;5032816;28;20065;-80
2023/01/03 01:13:34;;;;;;;0.15;0.13;;;16.80;76.70;;;;;;5032857;28;20026;-80
2023/01/03 01:16:06;;;;;;;0.77;0.22;;;16.80;76.80;;;;;;5032902;28;20025;-80
2023/01/03 01:18:32;;;;;;;0.30;0.10;;;16.80;77.80;;;;;;5033064;28;20048;-80
2023/01/03 01:20:57;;;;;;;1.85;0.28;;;16.80;76.90;;;;;;5033876;28;20058;-81
2023/01/03 01:23:23;;;;;;;0.20;0.20;;;16.80;77.00;;;;;;5033872;28;20021;-80
2023/01/03 01:25:49;;;;;;;0.15;0.10;;;16.70;76.80;;;;;;5032836;28;20029;-80
2023/01/03 01:28:14;;;;;;;0.10;0.10;;;16.80;76.90;;;;;;5033866;28;20083;-80
2023/01/03 01:30:40;;;;;;;0.77;0.20;;;16.70;76.90;;;;;;5033937;28;20025;-80
2023/01/03 01:33:06;;;;;;;0.50;0.22;;;16.70;77.00;;;;;;5032548;28;20082;-79
2023/01/03 01:35:31;;;;;;;0.68;0.22;;;16.70;77.10;;;;;;5033558;28;20026;-79
2023/01/03 01:37:57;;;;;;;0.28;0.20;;;16.70;77.00;;;;;;5032336;28;20025;-79
2023/01/03 01:40:23;;;;;;;0.40;0.20;;;16.70;77.10;;;;;;5033373;28;20617;-79
2023/01/03 01:45:34;;;;;;;0.38;0.30;;;16.70;77.10;;;;;;5033770;28;20163;-79
2023/01/03 01:48:03;;;;;;;1.13;0.30;;;16.70;77.10;;;;;;5032235;28;20159;-79
2023/01/03 01:50:39;;;;;;;0.20;0.20;;;16.60;77.00;;;;;;5032441;28;20112;-79
2023/01/03 01:53:14;;;;;;;0.90;0.30;;;16.70;77.10;;;;;;5032128;28;20029;-80
2023/01/03 01:55:46;;;;;;;1.10;0.30;;;16.60;77.10;;;;;;5018657;28;20373;-80
2023/01/03 01:58:12;;;;;;;0.25;0.10;;;16.60;77.20;;;;;;5013509;28;20072;-80
2023/01/03 02:00:38;;;;;;;0.30;0.25;;;16.60;77.30;;;;;;4995935;28;20038;-80
2023/01/03 02:03:04;;;;;;;1.00;0.50;;;16.60;77.30;;;;;;5011930;28;20094;-80
2023/01/03 02:05:30;;;;;;;1.05;0.30;;;16.60;77.40;;;;;;5012413;28;20112;-80
2023/01/03 02:07:56;;;;;;;0.20;0.10;;;16.60;77.40;;;;;;5012246;28;20022;-80
2023/01/03 02:10:44;;;;;;;0.47;0.30;;;16.60;77.40;;;;;;5011900;28;20037;-81
2023/01/03 02:13:25;;;;;;;2.65;0.30;;;16.60;77.40;;;;;;5011757;28;20507;-80
2023/01/03 02:15:56;;;;;;;3.25;0.40;;;16.60;77.40;;;;;;5012153;28;20032;-80
2023/01/03 02:18:38;;;;;;;1.65;0.30;;;16.50;77.50;;;;;;5013268;28;20105;-80
2023/01/03 02:21:32;;;;;;;0.57;0.20;;;16.60;77.50;;;;;;5011882;28;20029;-80
2023/01/03 02:24:23;;;;;;;2.97;0.45;;;16.60;77.50;;;;;;5013059;28;20042;-80
2023/01/03 02:26:58;;;;;;;0.73;0.20;;;16.50;77.50;;;;;;5011918;28;20026;-80
2023/01/03 02:29:38;;;;;;;1.23;0.28;;;16.50;77.50;;;;;;5013001;28;20388;-80
2023/01/03 02:32:18;;;;;;;0.50;0.45;;;16.50;77.50;;;;;;5011725;28;20108;-80
2023/01/03 02:35:21;;;;;;;0.90;0.22;;;16.50;77.50;;;;;;5011830;28;20026;-80
2023/01/03 02:38:08;;;;;;;0.57;0.13;;;16.50;77.50;;;;;;5011742;28;20018;-79
2023/01/03 02:40:44;;;;;;;1.00;0.32;;;16.50;77.50;;;;;;5011751;28;20029;-80
2023/01/03 02:43:15;;;;;;;0.65;0.25;;;16.50;77.70;;;;;;5011740;28;20404;-79
2023/01/03 02:46:16;;;;;;;1.23;0.30;;;16.40;77.60;;;;;;5012870;28;20433;-80
2023/01/03 02:49:28;;;;;;;0.47;0.30;;;16.40;77.60;;;;;;5028364;28;20037;-80
2023/01/03 02:52:01;;;;;;;1.55;0.20;;;16.40;77.60;;;;;;5031719;28;20524;-80
2023/01/03 02:54:32;;;;;;;1.08;0.30;;;16.40;77.60;;;;;;5027890;28;20129;-80
2023/01/03 02:57:05;;;;;;;0.63;0.30;;;16.40;77.50;;;;;;5011357;28;20054;-80
2023/01/03 02:59:58;;;;;;;0.30;0.30;;;16.40;77.60;;;;;;5011354;28;20072;-80
2023/01/03 03:02:28;;;;;;;1.42;0.30;;;16.40;77.50;;;;;;5010347;28;20053;-80
2023/01/03 03:04:54;;;;;;;0.20;0.20;;;16.40;77.50;;;;;;5011588;28;20025;-80
2023/01/03 03:07:28;;;;;;;0.80;0.28;;;16.40;77.50;;;;;;5011166;28;20431;-80
2023/01/03 03:15:31;;;;;;;0.22;0.22;;;16.40;77.50;;;;;;5011511;28;20028;-80
2023/01/03 03:17:58;;;;;;;0.93;0.30;;;16.30;77.50;;;;;;5011434;28;20024;-80
2023/01/03 03:26:08;;;;;;;0.63;0.40;;;16.30;77.50;;;;;;5012622;28;20467;-80
2023/01/03 03:28:35;;;;;;;1.67;0.20;;;16.30;77.50;;;;;;5015364;28;20032;-80
2023/01/03 03:31:01;;;;;;;0.85;0.20;;;16.30;77.60;;;;;;5015129;28;20466;-79
2023/01/03 03:33:27;;;;;;;0.63;0.20;;;16.30;77.50;;;;;;5016196;28;20113;-79
2023/01/03 03:35:59;;;;;;;0.20;0.17;;;16.30;77.50;;;;;;5014837;28;20400;-79
2023/01/03 03:38:35;;;;;;;1.58;0.20;;;16.30;77.50;;;;;;5015024;28;20405;-79
2023/01/03 03:47:13;;;;;;;0.95;0.22;;;16.20;77.50;;;;;;5018722;28;20498;-79
2023/01/03 03:49:39;;;;;;;0.10;0.10;;;16.20;77.50;;;;;;5034419;28;20099;-80
2023/01/03 03:52:10;;;;;;;0.70;0.35;;;16.20;77.50;;;;;;5035589;28;20071;-80
2023/01/03 03:54:37;;;;;;;1.13;0.30;;;16.20;77.50;;;;;;5029955;28;20024;-80
2023/01/03 03:57:32;;;;;;;0.32;0.25;;;16.20;77.50;;;;;;5014544;28;20021;-80
2023/01/03 04:00:04;;;;;;;0.75;0.30;;;16.20;77.50;;;;;;4998267;28;20088;-80
2023/01/03 04:02:29;;;;;;;1.00;0.35;;;16.20;77.50;;;;;;5014545;28;20412;-80
2023/01/03 04:04:57;;;;;;;0.70;0.13;;;16.20;77.50;;;;;;5014283;28;20037;-79
2023/01/03 04:07:23;;;;;;;6.03;0.30;;;16.20;77.60;;;;;;5014350;28;20477;-79
2023/01/03 04:09:49;;;;;;;2.00;0.43;;;16.20;77.60;;;;;;5014399;28;20033;-79
2023/01/03 04:12:15;;;;;;;0.40;0.10;;;16.10;77.50;;;;;;5014159;28;20112;-80
2023/01/03 04:14:40;;;;;;;0.40;0.20;;;16.10;77.50;;;;;;5014356;28;20025;-80
2023/01/03 04:17:06;;;;;;;0.85;0.20;;;16.10;77.50;;;;;;5014105;28;20025;-80
2023/01/03 04:19:32;;;;;;;3.10;0.22;;;16.10;77.50;;;;;;5014033;28;20030;-80
2023/01/03 04:21:57;;;;;;;1.10;0.35;;;16.10;77.50;;;;;;5015477;28;20495;-80
2023/01/03 04:24:24;;;;;;;0.68;0.30;;;16.10;77.60;;;;;;5013948;28;20053;-80
2023/01/03 04:26:49;;;;;;;0.50;0.25;;;16.10;77.60;;;;;;5015200;28;20033;-80
2023/01/03 04:29:15;;;;;;;0.73;0.20;;;16.10;77.60;;;;;;4997537;28;20045;-80
2023/01/03 04:31:41;;;;;;;1.02;0.20;;;16.10;77.60;;;;;;5015094;28;20033;-80
2023/01/03 04:34:07;;;;;;;1.42;0.40;;;16.10;77.70;;;;;;5013601;28;20029;-80
2023/01/03 04:36:32;;;;;;;0.95;0.40;;;16.10;77.80;;;;;;5013391;28;20094;-80
2023/01/03 04:38:58;;;;;;;1.25;0.50;;;16.10;77.90;;;;;;5013967;28;20080;-80
2023/01/03 04:41:23;;;;;;;0.50;0.28;;;16.10;77.80;;;;;;5015049;28;20048;-80
2023/01/03 04:44:01;;;;;;;0.38;0.20;;;16.00;77.90;;;;;;5013844;28;20427;-80
2023/01/03 04:46:28;;;;;;;0.95;0.40;;;16.00;77.80;;;;;;5014750;28;20026;-80
2023/01/03 04:48:54;;;;;;;0.55;0.50;;;16.00;77.90;;;;;;5032343;28;20079;-80
2023/01/03 04:51:20;;;;;;;0.35;0.10;;;16.00;77.90;;;;;;5031538;28;20025;-80
2023/01/03 04:53:45;;;;;;;1.30;0.30;;;16.00;77.90;;;;;;5034347;28;20064;-80
2023/01/03 04:56:11;;;;;;;1.50;0.30;;;16.00;77.90;;;;;;5033197;28;20056;-80
2023/01/03 04:58:37;;;;;;;0.57;0.30;;;16.00;78.00;;;;;;5033480;28;20025;-80
2023/01/03 05:01:03;;;;;;;2.13;0.35;;;16.00;77.90;;;;;;5032853;28;20442;-79
2023/01/03 05:03:29;;;;;;;0.55;0.55;;;16.10;78.00;;;;;;5032763;28;20030;-79
2023/01/03 05:06:01;;;;;;;0.80;0.25;;;16.00;78.00;;;;;;5033089;28;20025;-79
2023/01/03 05:08:27;;;;;;;0.50;0.20;;;16.10;78.00;;;;;;5033092;28;20029;-79
2023/01/03 05:10:52;;;;;;;0.90;0.30;;;16.00;78.00;;;;;;5033084;28;20032;-79
2023/01/03 05:13:18;;;;;;;1.00;0.22;;;16.00;77.90;;;;;;5032929;28;20040;-79
2023/01/03 05:15:44;;;;;;;1.15;0.30;;;16.00;77.90;;;;;;5016348;28;20018;-79
2023/01/03 05:18:09;;;;;;;1.50;0.30;;;16.00;78.00;;;;;;5033829;28;20052;-79
2023/01/03 05:26:15;;;;;;;1.02;0.20;;;16.00;77.90;;;;;;5033939;28;20407;-79
2023/01/03 05:28:42;;;;;;;0.77;0.30;;;16.00;78.00;;;;;;5032750;28;20029;-80
2023/01/03 05:31:07;;;;;;;0.40;0.25;;;15.90;78.00;;;;;;5032597;28;20021;-80
2023/01/03 05:33:33;;;;;;;0.98;0.20;;;16.00;78.00;;;;;;5032526;28;20029;-80
2023/01/03 05:35:59;;;;;;;0.28;0.28;;;15.90;77.90;;;;;;5032698;28;20025;-79
2023/01/03 05:38:24;;;;;;;0.73;0.20;;;15.90;78.00;;;;;;5033573;28;20033;-80
2023/01/03 05:40:50;;;;;;;0.45;0.20;;;15.90;78.00;;;;;;5033674;28;20018;-80
2023/01/03 05:43:16;;;;;;;0.40;0.20;;;15.90;78.10;;;;;;5033739;28;20025;-80
2023/01/03 05:45:41;;;;;;;0.77;0.30;;;15.90;79.10;;;;;;5032340;28;20052;-80
2023/01/03 05:48:07;;;;;;;0.47;0.30;;;15.90;78.10;;;;;;5031605;28;20035;-80
2023/01/03 05:50:33;;;;;;;1.15;0.30;;;15.90;79.10;;;;;;5031887;28;20144;-80
2023/01/03 05:52:59;;;;;;;0.47;0.20;;;15.90;78.30;;;;;;5032129;28;20037;-79
2023/01/03 05:55:24;;;;;;;0.40;0.30;;;15.90;78.40;;;;;;5021093;28;20029;-80
2023/01/03 05:57:51;;;;;;;1.17;0.20;;;15.90;78.20;;;;;;5013697;28;20221;-80
2023/01/03 06:00:17;;;;;;;6.70;0.40;;;15.90;78.30;;;;;;5012006;28;20025;-80
2023/01/03 06:02:42;;;;;;;0.20;0.20;;;15.90;78.40;;;;;;5012020;28;20060;-81
2023/01/03 06:05:08;;;;;;;0.55;0.32;;;15.90;78.50;;;;;;5013645;28;20021;-80
2023/01/03 06:07:36;;;;;;;3.10;0.30;;;15.90;78.40;;;;;;5011988;28;20116;-80
2023/01/03 06:10:05;;;;;;;1.55;0.28;;;15.90;78.40;;;;;;5012147;28;20451;-80
2023/01/03 06:12:31;;;;;;;1.15;0.30;;;15.80;78.50;;;;;;5013078;28;20036;-80
2023/01/03 06:14:56;;;;;;;0.70;0.20;;;15.80;78.40;;;;;;5013137;28;20101;-80
2023/01/03 06:20:07;;;;;;;0.73;0.45;;;15.90;78.50;;;;;;5013205;28;20072;-80
2023/01/03 06:22:32;;;;;;;4.65;0.40;;;15.80;78.50;;;;;;5012003;28;20101;-80
2023/01/03 06:24:58;;;;;;;2.17;0.50;;;15.80;78.50;;;;;;5012173;28;20668;-80
2023/01/03 06:27:23;;;;;;;2.03;0.40;;;15.90;78.60;;;;;;5011823;28;20030;-81
2023/01/03 06:29:49;;;;;;;1.20;0.47;;;15.90;78.60;;;;;;4995301;28;20045;-80
2023/01/03 06:32:15;;;;;;;0.93;0.30;;;15.80;78.50;;;;;;5011530;28;20029;-80
2023/01/03 06:34:40;;;;;;;0.65;0.28;;;15.80;78.50;;;;;;5011917;28;20049;-80
2023/01/03 06:37:06;;;;;;;0.43;0.30;;;15.80;78.50;;;;;;5012883;28;20026;-80
2023/01/03 06:39:32;;;;;;;0.40;0.22;;;15.90;78.60;;;;;;5011492;28;20033;-80
2023/01/03 06:42:38;;;;;;;0.30;0.20;;;15.80;78.50;;;;;;5013104;28;20022;-80
2023/01/03 06:53:10;;;;;;;0.60;0.20;;;15.80;78.60;;;;;;5012500;28;20503;-80
2023/01/03 06:53:11;;;;;;;0.77;0.35;;;15.70;78.50;;;;;;5031535;28;20080;-80
2023/01/03 06:55:37;;;;;;;0.60;0.35;;;15.80;78.60;;;;;;5018445;28;20018;-80
2023/01/03 06:58:02;;;;;;;1.50;0.30;;;15.80;78.60;;;;;;5011501;28;20400;-80
2023/01/03 07:00:28;;;;;;;1.67;0.32;;;15.80;78.70;;;;;;5012128;28;20058;-80
2023/01/03 07:02:53;;;;;;;0.10;0.10;;;15.80;78.60;;;;;;5011086;28;20066;-80
2023/01/03 07:05:21;;;;;;;0.80;0.40;;;15.80;78.70;;;;;;5012598;28;20033;-79
2023/01/03 07:07:46;;;;;;;0.93;0.40;;;15.80;79.60;;;;;;5012527;28;20040;-80
2023/01/03 07:10:12;;;;;;;0.55;0.35;;;15.80;78.60;;;;;;5012533;28;20101;-80
2023/01/03 07:15:22;;;;;;;0.73;0.38;;;15.80;78.60;;;;;;5012592;28;20093;-80
2023/01/03 07:17:48;;;;;;;2.50;0.30;;;15.80;78.60;;;;;;5011337;28;20511;-79
2023/01/03 07:20:14;;;;;;;1.67;0.30;;;15.80;78.50;;;;;;5012521;28;20022;-80
2023/01/03 07:22:39;;;;;;;1.92;0.30;;;15.70;78.20;;;;;;5012449;28;20030;-80
2023/01/03 07:25:05;;;;;;;0.63;0.32;;;15.70;78.00;;;;;;5012452;28;20029;-80
2023/01/03 07:27:31;;;;;;;5.50;0.80;;;15.70;77.90;;;;;;5012012;28;20037;-80
2023/01/03 07:29:56;;;;;;;1.25;0.30;;;15.70;77.70;;;;;;5011216;28;20101;-80
2023/01/03 07:32:22;;;;;;;1.73;0.40;;;15.70;77.60;;;;;;5012309;28;20511;-80
2023/01/03 07:34:48;;;;;;;1.45;0.38;;;15.70;77.50;;;;;;5011145;28;20029;-80
2023/01/03 07:37:13;;;;;;;0.40;0.30;;;15.70;77.40;;;;;;5011101;28;20033;-80
2023/01/03 07:39:39;;;;;;;2.00;0.50;;;15.70;77.40;;;;;;5012159;28;20091;-80
2023/01/03 07:44:49;;;;;;;1.58;0.55;;;15.70;77.30;;;;;;5012253;28;20032;-78
2023/01/03 07:47:14;;;;;;;12.88;2.00;;;15.70;77.20;;;;;;5016288;28;20029;-79
2023/01/03 07:49:40;;;;;;;15.73;2.80;;;15.60;77.40;;;;;;5031602;28;20385;-79
2023/01/03 07:52:05;;;;;;;13.88;2.97;;;15.70;77.60;;;;;;5031754;28;20526;-79
2023/01/03 07:54:31;;;;;;;13.38;3.60;;;15.60;77.80;;;;;;5027582;28;20389;-79
2023/01/03 07:56:57;;;;;;;14.15;2.92;;;15.60;77.90;;;;;;5010608;28;20468;-79
2023/01/03 07:59:22;;;;;;;13.35;2.28;;;15.60;78.00;;;;;;5011000;28;20022;-79
2023/01/03 08:01:48;;;;;;;16.33;2.83;;;15.60;78.00;;;;;;5009678;28;20055;-79
2023/01/03 08:04:14;;;;;;;7.78;2.17;;;15.60;78.00;;;;;;5009823;28;20025;-79
2023/01/03 08:06:39;;;;;;;19.63;3.47;;;15.60;78.00;;;;;;5010844;28;20456;-79
2023/01/03 08:14:33;;;;;;;10.80;2.47;;;15.60;77.90;;;;;;5014287;28;20416;-79
2023/01/03 08:16:58;;;;;;;12.27;2.75;;;15.60;77.90;;;;;;5014525;28;20472;-79
2023/01/03 08:19:24;;;;;;;9.55;3.05;;;15.60;77.80;;;;;;5015334;28;20022;-79
2023/01/03 08:21:50;;;;;;;7.60;2.20;;;15.60;77.70;;;;;;5014280;28;20389;-79
2023/01/03 08:24:16;;;;;;;11.13;2.75;;;15.60;77.70;;;;;;5013979;28;20029;-79
2023/01/03 08:26:41;;;;;;;12.13;2.78;;;15.50;77.70;;;;;;5015117;28;20029;-79
2023/01/03 08:29:07;;;;;;;8.70;2.45;;;15.50;77.70;;;;;;5015364;28;20100;-79
2023/01/03 08:31:34;;;;;;;7.15;2.47;;;15.60;77.70;;;;;;5014016;28;20461;-79
2023/01/03 08:34:02;;;;;;;9.07;2.65;;;15.50;77.60;;;;;;5014021;28;20026;-79
2023/01/03 08:36:30;;;;;;;11.30;2.50;;;15.50;77.50;;;;;;5014040;28;20030;-80
2023/01/03 08:39:08;;;;;;;7.63;2.05;;;15.50;77.50;;;;;;5014013;28;20401;-79
2023/01/03 08:41:37;;;;;;;9.07;2.10;;;15.50;77.40;;;;;;5013673;28;20388;-79
2023/01/03 08:44:02;;;;;;;6.00;2.13;;;15.50;77.30;;;;;;5014062;28;20022;-79
2023/01/03 08:46:28;;;;;;;8.05;2.22;;;15.50;77.30;;;;;;5013554;28;20392;-79
2023/01/03 08:48:54;;;;;;;9.90;2.47;;;15.50;77.20;;;;;;5031327;28;20029;-79
2023/01/03 08:51:20;;;;;;;8.15;2.40;;;15.50;77.10;;;;;;5033714;28;20025;-79
2023/01/03 08:53:45;;;;;;;7.53;2.20;;;15.50;77.10;;;;;;5034494;28;20033;-79
2023/01/03 08:56:11;;;;;;;6.80;2.35;;;15.50;77.10;;;;;;5016929;28;20019;-79
2023/01/03 08:58:37;;;;;;;8.25;2.45;;;15.50;77.00;;;;;;5013399;28;20022;-79
2023/01/03 09:01:03;;;;;;;11.32;2.42;;;15.50;77.00;;;;;;5014476;28;20022;-78
2023/01/03 09:03:30;;;;;;;6.72;2.15;;;15.50;76.90;;;;;;5013536;28;20528;-79
2023/01/03 09:06:00;;;;;;;10.30;2.40;;;15.50;76.80;;;;;;5014629;28;20036;-80
2023/01/03 09:08:25;;;;;;;5.28;1.90;;;15.50;76.80;;;;;;5013309;28;20030;-79
2023/01/03 09:10:51;;;;;;;6.45;1.65;;;15.40;76.70;;;;;;5013150;28;20030;-79
2023/01/03 09:13:16;;;;;;;5.95;1.83;;;15.40;76.70;;;;;;5014392;28;20034;-79
2023/01/03 09:15:42;;;;;;;10.23;2.50;;;15.50;76.80;;;;;;5013215;28;20400;-80
2023/01/03 09:18:08;;;;;;;7.45;2.22;;;15.40;76.70;;;;;;5014518;28;20497;-79
2023/01/03 09:20:34;;;;;;;6.53;1.88;;;15.40;76.60;;;;;;5014156;28;20026;-79
2023/01/03 09:23:00;;;;;;;5.53;1.70;;;15.40;76.70;;;;;;5014344;28;20092;-79
2023/01/03 09:25:25;;;;;;;3.67;1.73;;;15.40;76.70;;;;;;5013989;28;20029;-79
2023/01/03 09:27:51;;;;;;;9.05;2.50;;;15.40;76.60;;;;;;5014384;28;20027;-79
2023/01/03 09:30:18;;;;;;;3.67;1.92;;;15.40;76.60;;;;;;5013975;28;20030;-79
2023/01/03 09:32:44;;;;;;;4.63;2.00;;;15.40;76.60;;;;;;5012764;28;20033;-79
2023/01/03 09:35:10;;;;;;;5.15;1.90;;;15.40;76.60;;;;;;5013109;28;20022;-79
2023/01/03 09:37:35;;;;;;;7.00;1.90;;;15.40;76.80;;;;;;5013676;28;20448;-79
2023/01/03 09:40:02;;;;;;;6.68;2.20;;;15.40;76.50;;;;;;5013900;28;20030;-79
2023/01/03 09:45:31;;;;;;;7.05;1.60;;;15.30;76.50;;;;;;5012916;28;20041;-79
2023/01/03 09:47:59;;;;;;;6.95;1.88;;;15.30;76.50;;;;;;5022576;28;20026;-79
2023/01/03 09:50:26;;;;;;;5.78;1.60;;;15.30;76.50;;;;;;5032239;28;20033;-79
2023/01/03 10:04:45;;;;;;;6.10;1.92;;;15.30;76.50;;;;;;5013765;28;20113;-79
2023/01/03 10:07:35;;;;;;;6.93;1.65;;;15.20;76.40;;;;;;5013265;28;20068;-79
2023/01/03 10:10:22;;;;;;;5.60;2.17;;;15.20;76.40;;;;;;5013572;28;20076;-79
2023/01/03 10:13:06;;;;;;;3.53;1.33;;;15.20;76.40;;;;;;5013233;28;20025;-79
2023/01/03 10:16:01;;;;;;;4.20;1.65;;;15.20;76.30;;;;;;5013369;28;20018;-79
2023/01/03 10:18:36;;;;;;;3.15;1.58;;;15.20;76.40;;;;;;5027404;28;20044;-79
2023/01/03 10:21:05;;;;;;;4.78;1.40;;;15.20;76.40;;;;;;5011037;28;20374;-79
2023/01/03 10:23:30;;;;;;;4.13;1.35;;;15.20;76.50;;;;;;5010939;28;20038;-79
2023/01/03 10:25:56;;;;;;;4.20;1.50;;;15.20;76.40;;;;;;5027470;28;20029;-79
2023/01/03 10:28:26;;;;;;;4.43;1.75;;;15.20;76.40;;;;;;5010970;28;20041;-79
2023/01/03 10:30:58;;;;;;;4.28;1.17;;;15.20;76.40;;;;;;4994531;28;20030;-79
2023/01/03 10:33:28;;;;;;;5.18;1.38;;;15.20;76.50;;;;;;5010880;28;20088;-79
2023/01/03 10:35:55;;;;;;;5.07;1.30;;;15.20;76.50;;;;;;5010289;28;20038;-80
2023/01/03 10:38:21;;;;;;;3.83;1.35;;;15.20;76.50;;;;;;5010795;28;20021;-79
2023/01/03 10:40:50;;;;;;;3.80;1.30;;;15.20;76.40;;;;;;5026917;28;20115;-80
2023/01/03 10:43:24;;;;;;;4.05;1.50;;;15.20;76.50;;;;;;5010866;28;20034;-79
2023/01/03 10:46:00;;;;;;;5.93;1.58;;;15.10;76.40;;;;;;5010864;28;20503;-79
2023/01/03 10:48:45;;;;;;;3.55;1.45;;;15.10;76.40;;;;;;5024258;28;20109;-79
2023/01/03 10:51:34;;;;;;;3.60;1.63;;;15.10;76.40;;;;;;5045238;28;20492;-79
2023/01/03 10:54:08;;;;;;;4.38;1.60;;;15.10;76.40;;;;;;5030399;28;20467;-80
2023/01/03 10:56:34;;;;;;;3.17;1.40;;;15.10;76.40;;;;;;5026653;28;20092;-79
2023/01/03 10:59:10;;;;;;;3.33;1.20;;;15.10;76.40;;;;;;5011624;28;20025;-79
2023/01/03 11:01:36;;;;;;;5.25;1.50;;;15.10;76.40;;;;;;5011306;28;20038;-79
2023/01/03 11:04:13;;;;;;;3.92;1.27;;;15.10;76.50;;;;;;5011407;28;20037;-79
2023/01/03 11:06:43;;;;;;;4.13;1.45;;;15.10;76.40;;;;;;5011127;28;20465;-79
2023/01/03 11:09:09;;;;;;;5.78;1.10;;;15.10;76.50;;;;;;5011634;28;20042;-80
2023/01/03 11:11:36;;;;;;;4.82;1.40;;;15.10;76.50;;;;;;5011407;28;20547;-79
2023/01/03 11:14:08;;;;;;;4.13;1.30;;;15.10;76.50;;;;;;5011286;28;20484;-79
2023/01/03 11:16:33;;;;;;;3.83;1.33;;;15.10;76.50;;;;;;5012435;28;20064;-79
2023/01/03 11:19:04;;;;;;;1.65;1.23;;;15.10;76.50;;;;;;5011391;28;20061;-79
2023/01/03 11:21:41;;;;;;;3.33;1.23;;;15.10;76.50;;;;;;5011198;28;20072;-79
2023/01/03 11:24:13;;;;;;;3.33;1.13;;;15.10;76.50;;;;;;5012480;28;20030;-80
2023/01/03 11:27:25;;;;;;;2.67;1.13;;;15.10;76.50;;;;;;5012352;28;20029;-80
2023/01/03 11:30:11;;;;;;;4.55;1.15;;;15.10;76.50;;;;;;5003646;28;20066;-79
2023/01/03 11:32:55;;;;;;;4.20;1.33;;;15.10;76.50;;;;;;4990603;28;20032;-79
2023/01/03 11:35:36;;;;;;;3.08;1.23;;;15.10;76.60;;;;;;4990529;28;20073;-79
2023/01/03 11:38:10;;;;;;;2.95;1.08;;;15.10;76.60;;;;;;5006613;28;20058;-80
2023/01/03 11:41:01;;;;;;;2.42;0.98;;;15.10;76.60;;;;;;4990652;28;20042;-80
2023/01/03 11:43:33;;;;;;;2.88;1.30;;;15.00;76.60;;;;;;5004286;28;20034;-79
2023/01/03 11:46:06;;;;;;;3.05;1.30;;;15.00;76.50;;;;;;4990658;28;20034;-78
2023/01/03 11:48:40;;;;;;;2.75;1.02;;;15.00;76.60;;;;;;5024436;28;20455;-79
2023/01/03 11:51:23;;;;;;;3.67;1.05;;;15.00;76.60;;;;;;5030479;28;20100;-79
2023/01/03 11:54:02;;;;;;;5.43;1.48;;;15.00;76.50;;;;;;5029255;28;20096;-79
2023/01/03 11:56:32;;;;;;;3.15;0.93;;;15.00;76.50;;;;;;5010495;28;20069;-79
2023/01/03 11:59:19;;;;;;;2.45;0.93;;;15.00;76.60;;;;;;5010200;28;20030;-79
2023/01/03 12:01:49;;;;;;;3.33;1.20;;;15.00;76.60;;;;;;5007496;28;20579;-79
2023/01/03 12:04:30;;;;;;;2.90;1.15;;;15.00;76.60;;;;;;5010203;28;20030;-79
2023/01/03 12:07:04;;;;;;;4.05;1.20;;;15.00;76.60;;;;;;5005409;28;20045;-79
2023/01/03 12:09:53;;;;;;;4.43;1.10;;;15.00;76.60;;;;;;5015617;28;20104;-79
2023/01/03 12:12:24;;;;;;;2.10;1.10;;;15.00;76.50;;;;;;5014199;28;20049;-79
2023/01/03 12:14:57;;;;;;;1.15;0.70;;;15.00;76.60;;;;;;5014207;28;20022;-79
2023/01/03 12:17:30;;;;;;;2.58;1.00;;;15.00;76.60;;;;;;5014068;28;20030;-80
2023/01/03 12:20:21;;;;;;;3.38;1.13;;;15.00;76.60;;;;;;5014394;28;20431;-80
2023/01/03 12:22:57;;;;;;;2.50;1.00;;;15.00;76.50;;;;;;5014253;28;20110;-79
2023/01/03 12:25:35;;;;;;;4.78;1.17;;;15.00;76.60;;;;;;5014262;28;20022;-79
2023/01/03 12:28:13;;;;;;;2.88;1.00;;;15.00;76.50;;;;;;5013989;28;20117;-80
2023/01/03 12:30:47;;;;;;;2.35;1.00;;;15.00;76.60;;;;;;5014107;28;20049;-80
2023/01/03 12:33:32;;;;;;;3.75;1.05;;;15.00;76.60;;;;;;5013763;28;20025;-79
2023/01/03 12:36:16;;;;;;;3.95;1.10;;;15.00;76.50;;;;;;5014154;28;20024;-80
2023/01/03 12:38:45;;;;;;;2.97;1.00;;;15.00;76.60;;;;;;5014902;28;20037;-79
2023/01/03 12:41:53;;;;;;;2.70;0.82;;;15.00;76.60;;;;;;5014077;28;20037;-79
2023/01/03 12:44:31;;;;;;;1.98;0.68;;;15.00;76.60;;;;;;5013488;28;20492;-79
2023/01/03 12:46:56;;;;;;;4.53;1.20;;;14.90;76.50;;;;;;5015140;28;20018;-79
2023/01/03 12:49:22;;;;;;;2.83;1.05;;;14.90;76.50;;;;;;5031968;28;20369;-79
2023/01/03 12:51:48;;;;;;;1.35;0.75;;;14.90;76.50;;;;;;5020387;28;20500;-79
2023/01/03 12:54:32;;;;;;;2.40;0.90;;;14.90;76.50;;;;;;5030047;28;20030;-79
2023/01/03 12:57:28;;;;;;;2.30;1.00;;;14.90;76.50;;;;;;5034514;28;20028;-79
2023/01/03 13:00:20;;;;;;;2.67;0.98;;;15.00;76.60;;;;;;5034491;28;20136;-79
2023/01/03 13:02:56;;;;;;;2.20;0.95;;;15.00;76.60;;;;;;5033084;28;20131;-79
2023/01/03 13:05:22;;;;;;;1.55;0.90;;;15.00;76.60;;;;;;5017785;28;20021;-79
2023/01/03 13:08:01;;;;;;;1.30;0.68;;;14.90;76.50;;;;;;5034120;28;20395;-79
2023/01/03 13:10:27;;;;;;;3.97;1.20;;;14.90;76.50;;;;;;5033251;28;20030;-79
2023/01/03 13:12:53;;;;;;;3.63;1.05;;;14.90;76.50;;;;;;5032957;28;20499;-79
2023/01/03 13:15:32;;;;;;;2.10;0.85;;;14.90;76.50;;;;;;5032793;28;20488;-79
2023/01/03 13:18:19;;;;;;;3.15;1.02;;;14.90;76.50;;;;;;5033067;28;20021;-79
2023/01/03 13:20:46;;;;;;;2.92;1.10;;;15.00;76.60;;;;;;5034008;28;20021;-80
2023/01/03 13:23:32;;;;;;;4.00;0.98;;;14.90;76.50;;;;;;5032916;28;20044;-79
2023/01/03 13:26:04;;;;;;;2.92;0.80;;;14.90;76.50;;;;;;5033938;28;20025;-79
2023/01/03 13:28:36;;;;;;;4.47;1.23;;;14.90;76.50;;;;;;5034140;28;20025;-79
2023/01/03 13:31:15;;;;;;;1.38;0.80;;;14.90;76.50;;;;;;5033828;28;20021;-79
2023/01/03 13:33:47;;;;;;;3.65;0.90;;;14.90;76.50;;;;;;5033820;28;20025;-80
2023/01/03 13:36:14;;;;;;;2.20;0.70;;;14.90;76.50;;;;;;5033929;28;20072;-78
2023/01/03 13:38:40;;;;;;;1.73;0.90;;;14.90;76.50;;;;;;5016470;28;20554;-79
2023/01/03 13:41:35;;;;;;;1.20;0.60;;;14.90;76.50;;;;;;5016028;28;20021;-79
2023/01/03 13:44:22;;;;;;;1.23;0.75;;;14.90;76.50;;;;;;5032490;28;20025;-79
2023/01/03 13:46:47;;;;;;;2.03;0.90;;;14.90;76.50;;;;;;5032327;28;20102;-79
2023/01/03 13:49:21;;;;;;;2.15;0.85;;;14.90;76.60;;;;;;5032398;28;20496;-79
2023/01/03 13:51:56;;;;;;;5.35;0.80;;;14.90;76.50;;;;;;5032342;28;20028;-79
2023/01/03 13:54:42;;;;;;;1.55;0.60;;;14.90;76.50;;;;;;5032116;28;20480;-79
2023/01/03 13:57:28;;;;;;;1.08;0.63;;;14.90;76.50;;;;;;5021693;28;20038;-80
2023/01/03 13:59:53;;;;;;;2.97;1.10;;;14.90;76.60;;;;;;5012189;28;20029;-79
2023/01/03 14:02:59;;;;;;;2.65;0.80;;;14.90;76.50;;;;;;5012132;28;20072;-79